Terminal Aerodrome Forecast
Issued by NWS Cleveland, OH

Home | Current Version | Previous Version | Text Only | Print | Product List | Glossary On
Versions: 1 2 3 4 5 6 7 8 9 10 11 12 13 14 15 16 17 18 19 20 21
000
FTUS41 KCLE 040958 AAB
TAFMFD
TAF AMD
KMFD 040958Z 0410/0506 33003KT 2SM BR SCT003
      TEMPO 0410/0413 1/4SM FG VV002
     FM041300 33005KT 5SM BR BKN005
     FM041400 33006KT P6SM FEW045
     FM050100 VRB02KT P6SM SKC=

USA.gov is the U.S. government's official web portal to all federal, state and local government web resources and services.